Freeman, Colorado
Current Conditions -  °F | °C
As of 12:50 AM on Saturday 20 Dec 2014 (Local Time) from KRCV Reporting Station
Clear Clear  
Wind Chill:   Ceiling: Unl
Heat Index: 16°   Visibility: 10mi
Dew Point:   Wind: 10mph
Humidity: 72%   Direction: 270°W
Pressure: 30.15"   Gusts: NA
Location:  37.6359°N, 106.449°W
Report Text: KRCV 200750Z AUTO 27009KT 10SM CLR M09/M13 A3015 RMK AO2 T10901132
Loading
Personal Weather Stations






























Interactive Weather Map New forecast layout! Learn more

10-Day Weather Forecast

Advertisements
Track Severe Weather on mobile